sensor_id;sensor_type;location;lat;lon;timestamp;pressure;altitude;pressure_sealevel;temperature;humidity
79465;BME280;68932;47.410;8.232;2023-11-21T00:02:26;96404.16;;;8.67;73.35
79465;BME280;68932;47.410;8.232;2023-11-21T00:04:54;96404.65;;;8.65;73.55
79465;BME280;68932;47.410;8.232;2023-11-21T00:07:22;96403.75;;;8.63;73.43
79465;BME280;68932;47.410;8.232;2023-11-21T00:09:51;96404.34;;;8.62;73.48
79465;BME280;68932;47.410;8.232;2023-11-21T00:12:19;96402.96;;;8.61;73.53
79465;BME280;68932;47.410;8.232;2023-11-21T00:14:47;96403.65;;;8.61;73.66
79465;BME280;68932;47.410;8.232;2023-11-21T00:17:15;96405.17;;;8.59;73.51
79465;BME280;68932;47.410;8.232;2023-11-21T00:19:44;96406.17;;;8.58;73.52
79465;BME280;68932;47.410;8.232;2023-11-21T00:22:12;96404.61;;;8.57;73.60
79465;BME280;68932;47.410;8.232;2023-11-21T00:24:40;96405.47;;;8.57;73.69
79465;BME280;68932;47.410;8.232;2023-11-21T00:27:09;96404.09;;;8.57;73.83
79465;BME280;68932;47.410;8.232;2023-11-21T00:29:37;96403.77;;;8.57;73.89
79465;BME280;68932;47.410;8.232;2023-11-21T00:32:07;96402.23;;;8.56;73.97
79465;BME280;68932;47.410;8.232;2023-11-21T00:34:35;96400.48;;;8.56;74.06
79465;BME280;68932;47.410;8.232;2023-11-21T00:37:04;96396.46;;;8.56;74.19
79465;BME280;68932;47.410;8.232;2023-11-21T00:39:32;96394.34;;;8.57;74.25
79465;BME280;68932;47.410;8.232;2023-11-21T00:42:00;96398.13;;;8.58;74.36
79465;BME280;68932;47.410;8.232;2023-11-21T00:44:28;96396.29;;;8.59;74.44
79465;BME280;68932;47.410;8.232;2023-11-21T00:46:57;96395.58;;;8.59;74.56
79465;BME280;68932;47.410;8.232;2023-11-21T00:49:25;96394.89;;;8.59;74.62
79465;BME280;68932;47.410;8.232;2023-11-21T00:51:53;96389.45;;;8.59;74.88
79465;BME280;68932;47.410;8.232;2023-11-21T00:54:21;96388.08;;;8.59;75.09
79465;BME280;68932;47.410;8.232;2023-11-21T00:56:50;96386.60;;;8.58;74.77
79465;BME280;68932;47.410;8.232;2023-11-21T00:59:18;96387.45;;;8.58;75.00
79465;BME280;68932;47.410;8.232;2023-11-21T01:01:46;96390.23;;;8.58;75.41
79465;BME280;68932;47.410;8.232;2023-11-21T01:04:14;96388.19;;;8.60;75.41
79465;BME280;68932;47.410;8.232;2023-11-21T01:06:42;96384.83;;;8.60;75.51
79465;BME280;68932;47.410;8.232;2023-11-21T01:09:11;96386.21;;;8.60;75.51
79465;BME280;68932;47.410;8.232;2023-11-21T01:11:39;96382.83;;;8.62;75.49
79465;BME280;68932;47.410;8.232;2023-11-21T01:14:07;96381.86;;;8.63;75.56
79465;BME280;68932;47.410;8.232;2023-11-21T01:16:35;96377.11;;;8.64;75.63
79465;BME280;68932;47.410;8.232;2023-11-21T01:19:04;96374.02;;;8.63;75.91
79465;BME280;68932;47.410;8.232;2023-11-21T01:21:33;96375.00;;;8.61;76.09
79465;BME280;68932;47.410;8.232;2023-11-21T01:24:01;96373.09;;;8.61;76.20
79465;BME280;68932;47.410;8.232;2023-11-21T01:26:30;96368.12;;;8.60;76.13
79465;BME280;68932;47.410;8.232;2023-11-21T01:28:58;96363.98;;;8.59;76.33
79465;BME280;68932;47.410;8.232;2023-11-21T01:31:26;96368.52;;;8.56;76.46
79465;BME280;68932;47.410;8.232;2023-11-21T01:33:54;96369.64;;;8.53;76.46
79465;BME280;68932;47.410;8.232;2023-11-21T01:36:23;96373.15;;;8.50;76.59
79465;BME280;68932;47.410;8.232;2023-11-21T01:38:51;96373.02;;;8.49;76.64
79465;BME280;68932;47.410;8.232;2023-11-21T01:41:19;96373.40;;;8.49;76.55
79465;BME280;68932;47.410;8.232;2023-11-21T01:43:47;96377.45;;;8.48;76.49
79465;BME280;68932;47.410;8.232;2023-11-21T01:46:16;96381.00;;;8.48;76.57
79465;BME280;68932;47.410;8.232;2023-11-21T01:48:44;96387.25;;;8.48;76.65
79465;BME280;68932;47.410;8.232;2023-11-21T01:51:12;96391.19;;;8.49;76.80
79465;BME280;68932;47.410;8.232;2023-11-21T01:53:40;96397.06;;;8.50;76.91
79465;BME280;68932;47.410;8.232;2023-11-21T01:56:10;96393.17;;;8.51;77.17
79465;BME280;68932;47.410;8.232;2023-11-21T01:58:38;96395.98;;;8.51;77.21
79465;BME280;68932;47.410;8.232;2023-11-21T02:01:07;96396.88;;;8.50;77.23
79465;BME280;68932;47.410;8.232;2023-11-21T02:03:35;96389.52;;;8.48;77.15
79465;BME280;68932;47.410;8.232;2023-11-21T02:06:05;96386.09;;;8.47;77.23
79465;BME280;68932;47.410;8.232;2023-11-21T02:08:33;96381.70;;;8.45;77.23
79465;BME280;68932;47.410;8.232;2023-11-21T02:11:01;96380.75;;;8.44;77.28
79465;BME280;68932;47.410;8.232;2023-11-21T02:13:30;96384.38;;;8.41;77.35
79465;BME280;68932;47.410;8.232;2023-11-21T02:15:58;96384.98;;;8.37;77.44
79465;BME280;68932;47.410;8.232;2023-11-21T02:18:27;96385.86;;;8.34;77.57
79465;BME280;68932;47.410;8.232;2023-11-21T02:20:56;96385.23;;;8.33;77.65
79465;BME280;68932;47.410;8.232;2023-11-21T02:23:24;96387.27;;;8.31;77.69
79465;BME280;68932;47.410;8.232;2023-11-21T02:25:53;96382.86;;;8.29;77.78
79465;BME280;68932;47.410;8.232;2023-11-21T02:28:21;96375.54;;;8.27;77.78
79465;BME280;68932;47.410;8.232;2023-11-21T02:30:49;96376.64;;;8.26;77.80
79465;BME280;68932;47.410;8.232;2023-11-21T02:33:18;96370.05;;;8.25;77.96
79465;BME280;68932;47.410;8.232;2023-11-21T02:35:46;96365.35;;;8.25;78.12
79465;BME280;68932;47.410;8.232;2023-11-21T02:38:14;96367.09;;;8.25;78.30
79465;BME280;68932;47.410;8.232;2023-11-21T02:40:43;96363.89;;;8.26;78.55
79465;BME280;68932;47.410;8.232;2023-11-21T02:43:11;96359.91;;;8.28;78.74
79465;BME280;68932;47.410;8.232;2023-11-21T02:45:39;96356.91;;;8.28;78.66
79465;BME280;68932;47.410;8.232;2023-11-21T02:48:08;96355.17;;;8.28;78.81
79465;BME280;68932;47.410;8.232;2023-11-21T02:50:36;96357.96;;;8.28;78.96
79465;BME280;68932;47.410;8.232;2023-11-21T02:53:04;96356.20;;;8.28;79.08
79465;BME280;68932;47.410;8.232;2023-11-21T02:55:33;96355.98;;;8.29;79.14
79465;BME280;68932;47.410;8.232;2023-11-21T02:58:01;96351.61;;;8.29;79.20
79465;BME280;68932;47.410;8.232;2023-11-21T03:00:29;96349.89;;;8.29;79.30
79465;BME280;68932;47.410;8.232;2023-11-21T03:02:58;96346.95;;;8.28;79.27
79465;BME280;68932;47.410;8.232;2023-11-21T03:05:26;96345.45;;;8.27;79.25
79465;BME280;68932;47.410;8.232;2023-11-21T03:07:54;96345.09;;;8.28;79.16
79465;BME280;68932;47.410;8.232;2023-11-21T03:10:23;96343.65;;;8.28;79.21
79465;BME280;68932;47.410;8.232;2023-11-21T03:12:51;96341.93;;;8.28;78.88
79465;BME280;68932;47.410;8.232;2023-11-21T03:15:19;96342.64;;;8.28;78.80
79465;BME280;68932;47.410;8.232;2023-11-21T03:17:47;96337.68;;;8.29;78.79
79465;BME280;68932;47.410;8.232;2023-11-21T03:20:16;96335.61;;;8.28;78.76
79465;BME280;68932;47.410;8.232;2023-11-21T03:22:44;96328.43;;;8.26;78.71
79465;BME280;68932;47.410;8.232;2023-11-21T03:25:13;96332.60;;;8.26;78.68
79465;BME280;68932;47.410;8.232;2023-11-21T03:27:41;96337.51;;;8.26;78.59
79465;BME280;68932;47.410;8.232;2023-11-21T03:30:11;96338.86;;;8.24;78.38
79465;BME280;68932;47.410;8.232;2023-11-21T03:32:39;96341.35;;;8.21;78.23
79465;BME280;68932;47.410;8.232;2023-11-21T03:35:09;96347.17;;;8.17;78.24
79465;BME280;68932;47.410;8.232;2023-11-21T03:37:37;96344.27;;;8.14;78.30
79465;BME280;68932;47.410;8.232;2023-11-21T03:40:07;96345.95;;;8.12;78.48
79465;BME280;68932;47.410;8.232;2023-11-21T03:42:36;96340.87;;;8.10;78.57
79465;BME280;68932;47.410;8.232;2023-11-21T03:45:05;96337.80;;;8.08;78.71
79465;BME280;68932;47.410;8.232;2023-11-21T03:47:34;96344.73;;;8.07;78.74
79465;BME280;68932;47.410;8.232;2023-11-21T03:50:05;96349.16;;;8.03;78.73
79465;BME280;68932;47.410;8.232;2023-11-21T03:52:33;96352.34;;;7.97;78.82
79465;BME280;68932;47.410;8.232;2023-11-21T03:55:02;96358.40;;;7.92;78.95
79465;BME280;68932;47.410;8.232;2023-11-21T03:57:30;96355.28;;;7.89;79.10
79465;BME280;68932;47.410;8.232;2023-11-21T03:59:58;96353.60;;;7.88;79.32
79465;BME280;68932;47.410;8.232;2023-11-21T04:02:26;96356.55;;;7.89;79.37
79465;BME280;68932;47.410;8.232;2023-11-21T04:04:55;96361.16;;;7.88;79.28
79465;BME280;68932;47.410;8.232;2023-11-21T04:07:23;96362.54;;;7.85;79.36
79465;BME280;68932;47.410;8.232;2023-11-21T04:09:51;96362.70;;;7.83;79.60
79465;BME280;68932;47.410;8.232;2023-11-21T04:12:19;96363.92;;;7.80;79.82
79465;BME280;68932;47.410;8.232;2023-11-21T04:14:48;96367.20;;;7.80;79.86
79465;BME280;68932;47.410;8.232;2023-11-21T04:17:19;96368.27;;;7.80;79.85
79465;BME280;68932;47.410;8.232;2023-11-21T04:19:47;96368.30;;;7.80;80.07
79465;BME280;68932;47.410;8.232;2023-11-21T04:22:16;96369.17;;;7.80;80.18
79465;BME280;68932;47.410;8.232;2023-11-21T04:24:44;96367.48;;;7.79;80.22
79465;BME280;68932;47.410;8.232;2023-11-21T04:27:12;96364.17;;;7.79;80.33
79465;BME280;68932;47.410;8.232;2023-11-21T04:29:41;96360.04;;;7.78;80.35
79465;BME280;68932;47.410;8.232;2023-11-21T04:32:09;96361.60;;;7.78;80.50
79465;BME280;68932;47.410;8.232;2023-11-21T04:34:37;96363.17;;;7.78;80.39
79465;BME280;68932;47.410;8.232;2023-11-21T04:37:06;96362.60;;;7.76;80.48
79465;BME280;68932;47.410;8.232;2023-11-21T04:39:34;96368.26;;;7.75;80.47
79465;BME280;68932;47.410;8.232;2023-11-21T04:42:03;96365.27;;;7.73;80.47
79465;BME280;68932;47.410;8.232;2023-11-21T04:44:31;96362.92;;;7.71;80.71
79465;BME280;68932;47.410;8.232;2023-11-21T04:46:59;96364.09;;;7.67;80.72
79465;BME280;68932;47.410;8.232;2023-11-21T04:49:27;96361.92;;;7.65;80.75
79465;BME280;68932;47.410;8.232;2023-11-21T04:51:56;96366.14;;;7.64;80.79
79465;BME280;68932;47.410;8.232;2023-11-21T04:54:24;96365.42;;;7.65;80.83
79465;BME280;68932;47.410;8.232;2023-11-21T04:56:52;96366.11;;;7.65;80.84
79465;BME280;68932;47.410;8.232;2023-11-21T04:59:20;96363.16;;;7.65;80.89
79465;BME280;68932;47.410;8.232;2023-11-21T05:01:48;96368.34;;;7.66;80.88
79465;BME280;68932;47.410;8.232;2023-11-21T05:04:17;96366.71;;;7.66;80.99
79465;BME280;68932;47.410;8.232;2023-11-21T05:06:45;96367.55;;;7.65;80.92
79465;BME280;68932;47.410;8.232;2023-11-21T05:09:13;96373.02;;;7.63;81.02
79465;BME280;68932;47.410;8.232;2023-11-21T05:11:41;96375.77;;;7.61;81.17
79465;BME280;68932;47.410;8.232;2023-11-21T05:14:10;96377.72;;;7.60;81.19
79465;BME280;68932;47.410;8.232;2023-11-21T05:16:38;96382.65;;;7.59;81.21
79465;BME280;68932;47.410;8.232;2023-11-21T05:19:07;96384.45;;;7.58;81.35
79465;BME280;68932;47.410;8.232;2023-11-21T05:21:35;96381.30;;;7.58;81.51
79465;BME280;68932;47.410;8.232;2023-11-21T05:24:05;96386.90;;;7.58;81.62
79465;BME280;68932;47.410;8.232;2023-11-21T05:26:33;96382.71;;;7.58;81.73
79465;BME280;68932;47.410;8.232;2023-11-21T05:29:01;96386.36;;;7.58;81.77
79465;BME280;68932;47.410;8.232;2023-11-21T05:31:29;96378.80;;;7.60;81.85
79465;BME280;68932;47.410;8.232;2023-11-21T05:33:57;96377.36;;;7.61;81.89
79465;BME280;68932;47.410;8.232;2023-11-21T05:36:26;96380.52;;;7.60;81.87
79465;BME280;68932;47.410;8.232;2023-11-21T05:38:54;96387.94;;;7.58;81.87
79465;BME280;68932;47.410;8.232;2023-11-21T05:41:22;96385.36;;;7.58;81.97
79465;BME280;68932;47.410;8.232;2023-11-21T05:43:50;96384.54;;;7.60;82.04
79465;BME280;68932;47.410;8.232;2023-11-21T05:46:19;96382.52;;;7.62;82.12
79465;BME280;68932;47.410;8.232;2023-11-21T05:48:47;96383.46;;;7.64;82.01
79465;BME280;68932;47.410;8.232;2023-11-21T05:51:16;96384.05;;;7.63;81.93
79465;BME280;68932;47.410;8.232;2023-11-21T05:53:44;96387.72;;;7.63;82.03
79465;BME280;68932;47.410;8.232;2023-11-21T05:56:12;96392.73;;;7.63;82.17
79465;BME280;68932;47.410;8.232;2023-11-21T05:58:41;96398.91;;;7.65;82.20
79465;BME280;68932;47.410;8.232;2023-11-21T06:01:09;96398.56;;;7.68;82.26
79465;BME280;68932;47.410;8.232;2023-11-21T06:03:38;96407.30;;;7.70;82.23
79465;BME280;68932;47.410;8.232;2023-11-21T06:06:08;96410.34;;;7.71;82.27
79465;BME280;68932;47.410;8.232;2023-11-21T06:08:36;96413.57;;;7.73;82.32
79465;BME280;68932;47.410;8.232;2023-11-21T06:11:05;96411.13;;;7.73;82.29
79465;BME280;68932;47.410;8.232;2023-11-21T06:13:33;96407.75;;;7.74;82.38
79465;BME280;68932;47.410;8.232;2023-11-21T06:16:01;96409.19;;;7.76;82.34
79465;BME280;68932;47.410;8.232;2023-11-21T06:18:30;96414.29;;;7.78;82.39
79465;BME280;68932;47.410;8.232;2023-11-21T06:20:58;96414.21;;;7.79;82.31
79465;BME280;68932;47.410;8.232;2023-11-21T06:23:26;96417.40;;;7.81;82.19
79465;BME280;68932;47.410;8.232;2023-11-21T06:25:54;96425.64;;;7.83;82.19
79465;BME280;68932;47.410;8.232;2023-11-21T06:28:22;96428.68;;;7.82;82.14
79465;BME280;68932;47.410;8.232;2023-11-21T06:30:51;96426.58;;;7.79;82.02
79465;BME280;68932;47.410;8.232;2023-11-21T06:33:19;96425.30;;;7.78;82.22
79465;BME280;68932;47.410;8.232;2023-11-21T06:35:48;96427.44;;;7.77;82.26
79465;BME280;68932;47.410;8.232;2023-11-21T06:38:16;96431.92;;;7.78;82.40
79465;BME280;68932;47.410;8.232;2023-11-21T06:40:45;96433.98;;;7.78;82.42
79465;BME280;68932;47.410;8.232;2023-11-21T06:43:13;96435.80;;;7.77;82.39
79465;BME280;68932;47.410;8.232;2023-11-21T06:45:41;96430.93;;;7.77;82.40
79465;BME280;68932;47.410;8.232;2023-11-21T06:48:10;96433.30;;;7.78;82.59
79465;BME280;68932;47.410;8.232;2023-11-21T06:50:38;96432.86;;;7.79;82.52
79465;BME280;68932;47.410;8.232;2023-11-21T06:53:06;96435.40;;;7.81;82.56
79465;BME280;68932;47.410;8.232;2023-11-21T06:55:34;96435.67;;;7.82;82.52
79465;BME280;68932;47.410;8.232;2023-11-21T06:58:03;96439.77;;;7.80;82.47
79465;BME280;68932;47.410;8.232;2023-11-21T07:00:31;96441.83;;;7.79;82.52
79465;BME280;68932;47.410;8.232;2023-11-21T07:02:59;96442.10;;;7.77;82.53
79465;BME280;68932;47.410;8.232;2023-11-21T07:05:27;96440.80;;;7.78;82.59
79465;BME280;68932;47.410;8.232;2023-11-21T07:07:56;96441.14;;;7.81;82.66
79465;BME280;68932;47.410;8.232;2023-11-21T07:10:24;96441.63;;;7.84;82.64
79465;BME280;68932;47.410;8.232;2023-11-21T07:12:52;96444.67;;;7.86;82.60
79465;BME280;68932;47.410;8.232;2023-11-21T07:15:20;96445.86;;;7.86;82.57
79465;BME280;68932;47.410;8.232;2023-11-21T07:17:49;96443.63;;;7.86;82.59
79465;BME280;68932;47.410;8.232;2023-11-21T07:20:17;96445.36;;;7.86;82.60
79465;BME280;68932;47.410;8.232;2023-11-21T07:22:46;96447.48;;;7.88;82.75
79465;BME280;68932;47.410;8.232;2023-11-21T07:25:14;96448.98;;;7.89;82.61
79465;BME280;68932;47.410;8.232;2023-11-21T07:27:42;96448.51;;;7.89;82.55
79465;BME280;68932;47.410;8.232;2023-11-21T07:30:13;96448.94;;;7.87;82.42
79465;BME280;68932;47.410;8.232;2023-11-21T07:32:41;96450.30;;;7.85;82.47
79465;BME280;68932;47.410;8.232;2023-11-21T07:35:11;96454.76;;;7.86;82.51
79465;BME280;68932;47.410;8.232;2023-11-21T07:37:39;96457.30;;;7.90;82.61
79465;BME280;68932;47.410;8.232;2023-11-21T07:40:09;96460.70;;;7.94;82.59
79465;BME280;68932;47.410;8.232;2023-11-21T07:42:37;96461.73;;;7.97;82.63
79465;BME280;68932;47.410;8.232;2023-11-21T07:45:08;96463.03;;;8.02;82.67
79465;BME280;68932;47.410;8.232;2023-11-21T07:47:37;96463.23;;;8.07;82.69
79465;BME280;68932;47.410;8.232;2023-11-21T07:50:07;96461.95;;;8.11;82.73
79465;BME280;68932;47.410;8.232;2023-11-21T07:52:35;96465.33;;;8.15;82.75
79465;BME280;68932;47.410;8.232;2023-11-21T07:55:05;96469.77;;;8.17;82.40
79465;BME280;68932;47.410;8.232;2023-11-21T07:57:33;96472.39;;;8.19;82.44
79465;BME280;68932;47.410;8.232;2023-11-21T08:00:02;96472.09;;;8.21;82.41
79465;BME280;68932;47.410;8.232;2023-11-21T08:02:30;96469.27;;;8.24;82.39
79465;BME280;68932;47.410;8.232;2023-11-21T08:04:58;96465.55;;;8.28;82.38
79465;BME280;68932;47.410;8.232;2023-11-21T08:07:26;96463.23;;;8.31;82.46
79465;BME280;68932;47.410;8.232;2023-11-21T08:09:55;96464.50;;;8.33;82.26
79465;BME280;68932;47.410;8.232;2023-11-21T08:12:23;96465.52;;;8.33;82.06
79465;BME280;68932;47.410;8.232;2023-11-21T08:14:51;96473.38;;;8.31;81.82
79465;BME280;68932;47.410;8.232;2023-11-21T08:17:20;96473.42;;;8.28;81.95
79465;BME280;68932;47.410;8.232;2023-11-21T08:19:48;96468.38;;;8.27;82.03
79465;BME280;68932;47.410;8.232;2023-11-21T08:22:16;96469.10;;;8.30;82.03
79465;BME280;68932;47.410;8.232;2023-11-21T08:24:45;96472.08;;;8.32;82.03
79465;BME280;68932;47.410;8.232;2023-11-21T08:27:13;96473.52;;;8.34;81.96
79465;BME280;68932;47.410;8.232;2023-11-21T08:29:41;96469.97;;;8.35;81.90
79465;BME280;68932;47.410;8.232;2023-11-21T08:32:10;96479.01;;;8.35;81.88
79465;BME280;68932;47.410;8.232;2023-11-21T08:34:38;96482.67;;;8.38;81.96
79465;BME280;68932;47.410;8.232;2023-11-21T08:37:07;96482.48;;;8.42;82.08
79465;BME280;68932;47.410;8.232;2023-11-21T08:39:35;96487.55;;;8.48;82.07
79465;BME280;68932;47.410;8.232;2023-11-21T08:42:05;96488.20;;;8.51;82.04
79465;BME280;68932;47.410;8.232;2023-11-21T08:44:33;96490.25;;;8.54;82.07
79465;BME280;68932;47.410;8.232;2023-11-21T08:47:02;96491.55;;;8.56;81.96
79465;BME280;68932;47.410;8.232;2023-11-21T08:49:30;96491.35;;;8.59;81.93
79465;BME280;68932;47.410;8.232;2023-11-21T08:51:58;96488.48;;;8.60;81.74
79465;BME280;68932;47.410;8.232;2023-11-21T08:54:27;96487.84;;;8.59;81.55
79465;BME280;68932;47.410;8.232;2023-11-21T08:56:55;96490.40;;;8.57;81.50
79465;BME280;68932;47.410;8.232;2023-11-21T08:59:23;96492.77;;;8.55;81.47
79465;BME280;68932;47.410;8.232;2023-11-21T09:01:51;96493.83;;;8.55;81.62
79465;BME280;68932;47.410;8.232;2023-11-21T09:04:20;96493.20;;;8.57;81.64
79465;BME280;68932;47.410;8.232;2023-11-21T09:06:48;96493.59;;;8.59;81.73
79465;BME280;68932;47.410;8.232;2023-11-21T09:09:16;96498.81;;;8.62;81.71
79465;BME280;68932;47.410;8.232;2023-11-21T09:11:44;96499.40;;;8.64;81.61
79465;BME280;68932;47.410;8.232;2023-11-21T09:14:12;96503.52;;;8.62;81.52
79465;BME280;68932;47.410;8.232;2023-11-21T09:16:41;96503.98;;;8.63;81.57
79465;BME280;68932;47.410;8.232;2023-11-21T09:19:09;96506.77;;;8.63;81.61
79465;BME280;68932;47.410;8.232;2023-11-21T09:21:37;96508.02;;;8.63;81.45
79465;BME280;68932;47.410;8.232;2023-11-21T09:24:07;96504.60;;;8.62;81.35
79465;BME280;68932;47.410;8.232;2023-11-21T09:26:35;96505.95;;;8.59;81.25
79465;BME280;68932;47.410;8.232;2023-11-21T09:29:04;96503.30;;;8.60;81.46
79465;BME280;68932;47.410;8.232;2023-11-21T09:31:32;96502.14;;;8.62;81.44
79465;BME280;68932;47.410;8.232;2023-11-21T09:34:01;96503.43;;;8.63;81.44
79465;BME280;68932;47.410;8.232;2023-11-21T09:36:29;96505.50;;;8.67;81.50
79465;BME280;68932;47.410;8.232;2023-11-21T09:38:58;96506.23;;;8.69;81.53
79465;BME280;68932;47.410;8.232;2023-11-21T09:41:32;96504.89;;;8.73;81.69
79465;BME280;68932;47.410;8.232;2023-11-21T09:44:04;96507.60;;;8.77;81.49
79465;BME280;68932;47.410;8.232;2023-11-21T09:46:34;96510.56;;;8.80;81.52
79465;BME280;68932;47.410;8.232;2023-11-21T09:49:04;96519.50;;;8.83;81.44
79465;BME280;68932;47.410;8.232;2023-11-21T09:51:32;96523.25;;;8.86;81.47
79465;BME280;68932;47.410;8.232;2023-11-21T09:54:04;96519.95;;;8.89;81.25
79465;BME280;68932;47.410;8.232;2023-11-21T09:56:33;96519.88;;;8.92;81.40
79465;BME280;68932;47.410;8.232;2023-11-21T09:59:02;96527.06;;;8.97;81.31
79465;BME280;68932;47.410;8.232;2023-11-21T10:01:32;96528.33;;;9.02;81.07
79465;BME280;68932;47.410;8.232;2023-11-21T10:04:02;96527.90;;;9.03;81.09
79465;BME280;68932;47.410;8.232;2023-11-21T10:06:32;96522.09;;;9.04;81.06
79465;BME280;68932;47.410;8.232;2023-11-21T10:09:01;96522.20;;;9.05;81.05
79465;BME280;68932;47.410;8.232;2023-11-21T10:11:30;96519.45;;;9.06;80.98
79465;BME280;68932;47.410;8.232;2023-11-21T10:13:59;96519.13;;;9.09;81.00
79465;BME280;68932;47.410;8.232;2023-11-21T10:16:30;96517.59;;;9.13;80.90
79465;BME280;68932;47.410;8.232;2023-11-21T10:18:59;96520.84;;;9.20;81.13
79465;BME280;68932;47.410;8.232;2023-11-21T10:21:28;96518.15;;;9.26;81.12
79465;BME280;68932;47.410;8.232;2023-11-21T10:23:57;96517.77;;;9.32;81.02
79465;BME280;68932;47.410;8.232;2023-11-21T10:26:28;96518.70;;;9.36;80.95
79465;BME280;68932;47.410;8.232;2023-11-21T10:28:59;96517.59;;;9.39;80.73
79465;BME280;68932;47.410;8.232;2023-11-21T10:31:28;96521.94;;;9.42;80.77
79465;BME280;68932;47.410;8.232;2023-11-21T10:33:58;96524.10;;;9.42;80.60
79465;BME280;68932;47.410;8.232;2023-11-21T10:36:37;96522.81;;;9.39;80.69
79465;BME280;68932;47.410;8.232;2023-11-21T10:39:06;96518.02;;;9.41;80.71
79465;BME280;68932;47.410;8.232;2023-11-21T10:41:34;96514.84;;;9.44;80.67
79465;BME280;68932;47.410;8.232;2023-11-21T10:44:04;96514.34;;;9.44;80.35
79465;BME280;68932;47.410;8.232;2023-11-21T10:46:32;96507.10;;;9.42;80.39
79465;BME280;68932;47.410;8.232;2023-11-21T10:49:01;96509.48;;;9.45;80.47
79465;BME280;68932;47.410;8.232;2023-11-21T10:51:29;96507.41;;;9.47;80.54
79465;BME280;68932;47.410;8.232;2023-11-21T10:53:57;96507.58;;;9.48;80.28
79465;BME280;68932;47.410;8.232;2023-11-21T10:56:27;96505.11;;;9.51;80.32
79465;BME280;68932;47.410;8.232;2023-11-21T10:58:56;96512.55;;;9.54;80.23
79465;BME280;68932;47.410;8.232;2023-11-21T11:01:26;96516.48;;;9.58;80.21
79465;BME280;68932;47.410;8.232;2023-11-21T11:03:57;96512.86;;;9.63;80.23
79465;BME280;68932;47.410;8.232;2023-11-21T11:06:28;96506.31;;;9.64;80.05
79465;BME280;68932;47.410;8.232;2023-11-21T11:08:57;96505.81;;;9.66;79.99
79465;BME280;68932;47.410;8.232;2023-11-21T11:11:26;96505.20;;;9.67;79.91
79465;BME280;68932;47.410;8.232;2023-11-21T11:13:55;96508.71;;;9.67;79.81
79465;BME280;68932;47.410;8.232;2023-11-21T11:16:24;96512.23;;;9.67;79.82
79465;BME280;68932;47.410;8.232;2023-11-21T11:18:52;96512.12;;;9.66;79.74
79465;BME280;68932;47.410;8.232;2023-11-21T11:21:27;96504.38;;;9.61;79.51
79465;BME280;68932;47.410;8.232;2023-11-21T11:24:16;96501.40;;;9.61;79.84
79465;BME280;68932;47.410;8.232;2023-11-21T11:26:55;96497.61;;;9.63;79.85
79465;BME280;68932;47.410;8.232;2023-11-21T11:29:34;96499.67;;;9.64;79.98
79465;BME280;68932;47.410;8.232;2023-11-21T11:32:12;96499.98;;;9.67;80.16
79465;BME280;68932;47.410;8.232;2023-11-21T11:34:47;96499.09;;;9.69;79.99
79465;BME280;68932;47.410;8.232;2023-11-21T11:37:18;96500.88;;;9.71;80.05
79465;BME280;68932;47.410;8.232;2023-11-21T11:39:48;96503.42;;;9.73;80.05
79465;BME280;68932;47.410;8.232;2023-11-21T11:42:19;96503.01;;;9.74;79.86
79465;BME280;68932;47.410;8.232;2023-11-21T11:44:48;96503.11;;;9.74;79.83
79465;BME280;68932;47.410;8.232;2023-11-21T11:47:19;96503.95;;;9.75;79.82
79465;BME280;68932;47.410;8.232;2023-11-21T11:49:59;96508.70;;;9.77;79.93
79465;BME280;68932;47.410;8.232;2023-11-21T11:52:39;96508.91;;;9.79;79.96
79465;BME280;68932;47.410;8.232;2023-11-21T11:55:10;96515.92;;;9.81;80.00
79465;BME280;68932;47.410;8.232;2023-11-21T11:57:39;96513.77;;;9.82;79.85
79465;BME280;68932;47.410;8.232;2023-11-21T12:00:16;96513.73;;;9.83;79.94
79465;BME280;68932;47.410;8.232;2023-11-21T12:02:46;96513.63;;;9.87;80.17
79465;BME280;68932;47.410;8.232;2023-11-21T12:05:15;96508.34;;;9.92;80.28
79465;BME280;68932;47.410;8.232;2023-11-21T12:07:52;96510.49;;;9.93;79.80
79465;BME280;68932;47.410;8.232;2023-11-21T12:10:22;96513.16;;;9.93;79.55
79465;BME280;68932;47.410;8.232;2023-11-21T12:12:52;96513.23;;;9.92;79.64
79465;BME280;68932;47.410;8.232;2023-11-21T12:15:22;96508.71;;;9.92;79.10
79465;BME280;68932;47.410;8.232;2023-11-21T12:17:51;96511.11;;;9.92;78.93
79465;BME280;68932;47.410;8.232;2023-11-21T12:20:22;96512.11;;;9.93;79.05
79465;BME280;68932;47.410;8.232;2023-11-21T12:22:51;96514.38;;;9.93;79.10
79465;BME280;68932;47.410;8.232;2023-11-21T12:25:20;96511.62;;;9.93;79.29
79465;BME280;68932;47.410;8.232;2023-11-21T12:27:50;96511.36;;;9.94;79.62
79465;BME280;68932;47.410;8.232;2023-11-21T12:30:19;96512.92;;;9.96;79.68
79465;BME280;68932;47.410;8.232;2023-11-21T12:32:50;96515.64;;;9.97;79.46
79465;BME280;68932;47.410;8.232;2023-11-21T12:35:19;96518.31;;;9.99;79.54
79465;BME280;68932;47.410;8.232;2023-11-21T12:37:49;96521.17;;;10.01;79.42
79465;BME280;68932;47.410;8.232;2023-11-21T12:40:17;96521.83;;;10.02;79.48
79465;BME280;68932;47.410;8.232;2023-11-21T12:42:47;96522.30;;;10.03;79.72
79465;BME280;68932;47.410;8.232;2023-11-21T12:45:23;96524.17;;;10.04;79.71
79465;BME280;68932;47.410;8.232;2023-11-21T12:47:54;96522.58;;;10.04;79.89
79465;BME280;68932;47.410;8.232;2023-11-21T12:50:24;96521.75;;;10.06;79.84
79465;BME280;68932;47.410;8.232;2023-11-21T12:52:52;96522.33;;;10.05;79.54
79465;BME280;68932;47.410;8.232;2023-11-21T12:55:21;96521.02;;;10.04;79.15
79465;BME280;68932;47.410;8.232;2023-11-21T12:57:52;96520.65;;;10.04;79.10
79465;BME280;68932;47.410;8.232;2023-11-21T13:00:27;96518.92;;;10.04;78.78
79465;BME280;68932;47.410;8.232;2023-11-21T13:02:57;96522.16;;;10.02;78.63
79465;BME280;68932;47.410;8.232;2023-11-21T13:05:28;96526.93;;;10.02;78.42
79465;BME280;68932;47.410;8.232;2023-11-21T13:07:58;96529.27;;;10.01;78.43
79465;BME280;68932;47.410;8.232;2023-11-21T13:10:28;96527.77;;;9.99;78.35
79465;BME280;68932;47.410;8.232;2023-11-21T13:12:57;96527.20;;;9.98;78.15
79465;BME280;68932;47.410;8.232;2023-11-21T13:15:27;96526.11;;;9.95;78.08
79465;BME280;68932;47.410;8.232;2023-11-21T13:17:55;96526.77;;;9.94;78.09
79465;BME280;68932;47.410;8.232;2023-11-21T13:20:24;96528.08;;;9.92;77.92